sensor_id;sensor_type;location;lat;lon;timestamp;temperature;humidity
21419;DHT22;10870;51.384;10.316;2022-07-23T00:00:36;16.80;99.90
21419;DHT22;10870;51.384;10.316;2022-07-23T00:02:42;16.80;99.90
21419;DHT22;10870;51.384;10.316;2022-07-23T00:04:43;16.70;99.90
21419;DHT22;10870;51.384;10.316;2022-07-23T00:06:54;16.60;99.90
21419;DHT22;10870;51.384;10.316;2022-07-23T00:09:05;16.70;99.90
21419;DHT22;10870;51.384;10.316;2022-07-23T00:11:06;16.70;99.90
21419;DHT22;10870;51.384;10.316;2022-07-23T00:13:08;16.70;99.90
21419;DHT22;10870;51.384;10.316;2022-07-23T00:15:09;16.70;99.90
21419;DHT22;10870;51.384;10.316;2022-07-23T00:17:12;16.70;99.90
21419;DHT22;10870;51.384;10.316;2022-07-23T00:19:19;16.70;99.90
21419;DHT22;10870;51.384;10.316;2022-07-23T00:21:26;16.60;99.90
21419;DHT22;10870;51.384;10.316;2022-07-23T00:23:26;16.60;99.90
21419;DHT22;10870;51.384;10.316;2022-07-23T00:25:32;16.70;99.90
21419;DHT22;10870;51.384;10.316;2022-07-23T00:27:37;16.70;99.90
21419;DHT22;10870;51.384;10.316;2022-07-23T00:29:38;16.80;99.90
21419;DHT22;10870;51.384;10.316;2022-07-23T00:31:41;16.80;99.90
21419;DHT22;10870;51.384;10.316;2022-07-23T00:33:42;16.80;99.90
21419;DHT22;10870;51.384;10.316;2022-07-23T00:35:43;16.90;99.90
21419;DHT22;10870;51.384;10.316;2022-07-23T00:37:43;16.90;99.90
21419;DHT22;10870;51.384;10.316;2022-07-23T00:39:46;16.80;99.90
21419;DHT22;10870;51.384;10.316;2022-07-23T00:41:47;16.90;99.90
21419;DHT22;10870;51.384;10.316;2022-07-23T00:43:48;16.80;99.90
21419;DHT22;10870;51.384;10.316;2022-07-23T00:45:49;16.80;99.90
21419;DHT22;10870;51.384;10.316;2022-07-23T00:47:50;16.90;99.90
21419;DHT22;10870;51.384;10.316;2022-07-23T00:49:53;16.90;99.90
21419;DHT22;10870;51.384;10.316;2022-07-23T00:51:56;17.00;99.90
21419;DHT22;10870;51.384;10.316;2022-07-23T00:53:58;17.00;99.90
21419;DHT22;10870;51.384;10.316;2022-07-23T00:56:02;17.00;99.90
21419;DHT22;10870;51.384;10.316;2022-07-23T00:58:03;17.00;99.90
21419;DHT22;10870;51.384;10.316;2022-07-23T01:00:05;17.10;99.90
21419;DHT22;10870;51.384;10.316;2022-07-23T01:02:07;17.00;99.90
21419;DHT22;10870;51.384;10.316;2022-07-23T01:04:08;17.10;99.90
21419;DHT22;10870;51.384;10.316;2022-07-23T01:06:08;17.10;99.90
21419;DHT22;10870;51.384;10.316;2022-07-23T01:08:10;17.10;99.90
21419;DHT22;10870;51.384;10.316;2022-07-23T01:10:14;17.20;99.90
21419;DHT22;10870;51.384;10.316;2022-07-23T01:12:33;17.20;99.90
21419;DHT22;10870;51.384;10.316;2022-07-23T01:14:34;17.10;99.90
21419;DHT22;10870;51.384;10.316;2022-07-23T01:16:35;17.10;99.90
21419;DHT22;10870;51.384;10.316;2022-07-23T01:18:36;17.00;99.90
21419;DHT22;10870;51.384;10.316;2022-07-23T01:20:39;16.90;99.90
21419;DHT22;10870;51.384;10.316;2022-07-23T01:22:39;16.90;99.90
21419;DHT22;10870;51.384;10.316;2022-07-23T01:24:41;16.90;99.90
21419;DHT22;10870;51.384;10.316;2022-07-23T01:26:43;17.00;99.90
21419;DHT22;10870;51.384;10.316;2022-07-23T01:28:45;17.00;99.90
21419;DHT22;10870;51.384;10.316;2022-07-23T01:30:51;17.10;99.90
21419;DHT22;10870;51.384;10.316;2022-07-23T01:32:54;17.10;99.90
21419;DHT22;10870;51.384;10.316;2022-07-23T01:34:54;17.00;99.90
21419;DHT22;10870;51.384;10.316;2022-07-23T01:36:55;16.90;99.90
21419;DHT22;10870;51.384;10.316;2022-07-23T01:38:56;16.80;99.90
21419;DHT22;10870;51.384;10.316;2022-07-23T01:40:57;16.80;99.90
21419;DHT22;10870;51.384;10.316;2022-07-23T01:42:58;16.80;99.90
21419;DHT22;10870;51.384;10.316;2022-07-23T01:44:58;16.80;99.90
21419;DHT22;10870;51.384;10.316;2022-07-23T01:47:07;16.80;99.90
21419;DHT22;10870;51.384;10.316;2022-07-23T01:49:10;16.80;99.90
21419;DHT22;10870;51.384;10.316;2022-07-23T01:51:11;16.80;99.90
21419;DHT22;10870;51.384;10.316;2022-07-23T01:53:11;16.80;99.90
21419;DHT22;10870;51.384;10.316;2022-07-23T01:55:12;16.80;99.90
21419;DHT22;10870;51.384;10.316;2022-07-23T01:57:13;16.80;99.90
21419;DHT22;10870;51.384;10.316;2022-07-23T01:59:14;16.90;99.90
21419;DHT22;10870;51.384;10.316;2022-07-23T02:01:15;16.90;99.90
21419;DHT22;10870;51.384;10.316;2022-07-23T02:03:18;16.90;99.90
21419;DHT22;10870;51.384;10.316;2022-07-23T02:05:19;16.80;99.90
21419;DHT22;10870;51.384;10.316;2022-07-23T02:07:20;16.70;99.90
21419;DHT22;10870;51.384;10.316;2022-07-23T02:09:21;16.80;99.90
21419;DHT22;10870;51.384;10.316;2022-07-23T02:11:23;16.80;99.90
21419;DHT22;10870;51.384;10.316;2022-07-23T02:13:23;16.80;99.90
21419;DHT22;10870;51.384;10.316;2022-07-23T02:15:24;16.80;99.90
21419;DHT22;10870;51.384;10.316;2022-07-23T02:17:33;16.70;99.90
21419;DHT22;10870;51.384;10.316;2022-07-23T02:19:33;16.70;99.90
21419;DHT22;10870;51.384;10.316;2022-07-23T02:21:34;16.70;99.90
21419;DHT22;10870;51.384;10.316;2022-07-23T02:23:36;16.70;99.90
21419;DHT22;10870;51.384;10.316;2022-07-23T02:25:37;16.60;99.90
21419;DHT22;10870;51.384;10.316;2022-07-23T02:27:40;16.60;99.90
21419;DHT22;10870;51.384;10.316;2022-07-23T02:29:41;16.60;99.90
21419;DHT22;10870;51.384;10.316;2022-07-23T02:31:41;16.60;99.90
21419;DHT22;10870;51.384;10.316;2022-07-23T02:33:42;16.50;99.90
21419;DHT22;10870;51.384;10.316;2022-07-23T02:35:43;16.60;99.90
21419;DHT22;10870;51.384;10.316;2022-07-23T02:37:46;16.60;99.90
21419;DHT22;10870;51.384;10.316;2022-07-23T02:39:49;16.60;99.90
21419;DHT22;10870;51.384;10.316;2022-07-23T02:41:51;16.50;99.90
21419;DHT22;10870;51.384;10.316;2022-07-23T02:43:54;16.50;99.90
21419;DHT22;10870;51.384;10.316;2022-07-23T02:45:54;16.60;99.90
21419;DHT22;10870;51.384;10.316;2022-07-23T02:47:55;16.60;99.90
21419;DHT22;10870;51.384;10.316;2022-07-23T02:49:58;16.70;99.90
21419;DHT22;10870;51.384;10.316;2022-07-23T02:52:03;16.70;99.90
21419;DHT22;10870;51.384;10.316;2022-07-23T02:54:07;16.60;99.90
21419;DHT22;10870;51.384;10.316;2022-07-23T02:56:08;16.60;99.90
21419;DHT22;10870;51.384;10.316;2022-07-23T02:58:09;16.50;99.90
21419;DHT22;10870;51.384;10.316;2022-07-23T03:00:10;16.40;99.90
21419;DHT22;10870;51.384;10.316;2022-07-23T03:02:13;16.50;99.90
21419;DHT22;10870;51.384;10.316;2022-07-23T03:04:14;16.50;99.90
21419;DHT22;10870;51.384;10.316;2022-07-23T03:06:15;16.60;99.90
21419;DHT22;10870;51.384;10.316;2022-07-23T03:08:16;16.60;99.90
21419;DHT22;10870;51.384;10.316;2022-07-23T03:10:19;16.50;99.90
21419;DHT22;10870;51.384;10.316;2022-07-23T03:12:20;16.40;99.90
21419;DHT22;10870;51.384;10.316;2022-07-23T03:14:20;16.50;99.90
21419;DHT22;10870;51.384;10.316;2022-07-23T03:16:21;16.40;99.90
21419;DHT22;10870;51.384;10.316;2022-07-23T03:18:24;16.50;99.90
21419;DHT22;10870;51.384;10.316;2022-07-23T03:20:27;16.40;99.90
21419;DHT22;10870;51.384;10.316;2022-07-23T03:22:28;16.40;99.90
21419;DHT22;10870;51.384;10.316;2022-07-23T03:24:32;16.40;99.90
21419;DHT22;10870;51.384;10.316;2022-07-23T03:26:54;16.50;99.90
21419;DHT22;10870;51.384;10.316;2022-07-23T03:28:57;16.50;99.90
21419;DHT22;10870;51.384;10.316;2022-07-23T03:30:58;16.40;99.90
21419;DHT22;10870;51.384;10.316;2022-07-23T03:32:59;16.40;99.90
21419;DHT22;10870;51.384;10.316;2022-07-23T03:35:00;16.40;99.90
21419;DHT22;10870;51.384;10.316;2022-07-23T03:37:03;16.30;99.90
21419;DHT22;10870;51.384;10.316;2022-07-23T03:39:04;16.30;99.90
21419;DHT22;10870;51.384;10.316;2022-07-23T03:41:05;16.30;99.90
21419;DHT22;10870;51.384;10.316;2022-07-23T03:43:06;16.30;99.90
21419;DHT22;10870;51.384;10.316;2022-07-23T03:45:06;16.20;99.90
21419;DHT22;10870;51.384;10.316;2022-07-23T03:47:08;16.30;99.90
21419;DHT22;10870;51.384;10.316;2022-07-23T03:49:11;16.30;99.90
21419;DHT22;10870;51.384;10.316;2022-07-23T03:51:13;16.20;99.90
21419;DHT22;10870;51.384;10.316;2022-07-23T03:53:14;16.20;99.90
21419;DHT22;10870;51.384;10.316;2022-07-23T03:55:15;16.20;99.90
21419;DHT22;10870;51.384;10.316;2022-07-23T03:57:16;16.10;99.90
21419;DHT22;10870;51.384;10.316;2022-07-23T03:59:17;16.20;99.90
21419;DHT22;10870;51.384;10.316;2022-07-23T04:01:20;16.20;99.90
21419;DHT22;10870;51.384;10.316;2022-07-23T04:03:21;16.20;99.90
21419;DHT22;10870;51.384;10.316;2022-07-23T04:05:22;16.30;99.90
21419;DHT22;10870;51.384;10.316;2022-07-23T04:07:23;16.20;99.90
21419;DHT22;10870;51.384;10.316;2022-07-23T04:09:24;16.20;99.90
21419;DHT22;10870;51.384;10.316;2022-07-23T04:11:24;16.20;99.90
21419;DHT22;10870;51.384;10.316;2022-07-23T04:13:28;16.10;99.90
21419;DHT22;10870;51.384;10.316;2022-07-23T04:15:33;16.10;99.90
21419;DHT22;10870;51.384;10.316;2022-07-23T04:17:40;16.10;99.90
21419;DHT22;10870;51.384;10.316;2022-07-23T04:19:41;16.00;99.90
21419;DHT22;10870;51.384;10.316;2022-07-23T04:21:43;16.10;99.90
21419;DHT22;10870;51.384;10.316;2022-07-23T04:23:44;16.00;99.90
21419;DHT22;10870;51.384;10.316;2022-07-23T04:25:48;16.00;99.90
21419;DHT22;10870;51.384;10.316;2022-07-23T04:27:49;16.00;99.90
21419;DHT22;10870;51.384;10.316;2022-07-23T04:29:50;16.00;99.90
21419;DHT22;10870;51.384;10.316;2022-07-23T04:31:51;16.10;99.90
21419;DHT22;10870;51.384;10.316;2022-07-23T04:33:54;16.20;99.90
21419;DHT22;10870;51.384;10.316;2022-07-23T04:35:54;16.20;99.90
21419;DHT22;10870;51.384;10.316;2022-07-23T04:37:58;16.30;99.90
21419;DHT22;10870;51.384;10.316;2022-07-23T04:39:59;16.30;99.90
21419;DHT22;10870;51.384;10.316;2022-07-23T04:42:02;16.20;99.90
21419;DHT22;10870;51.384;10.316;2022-07-23T04:44:03;16.20;99.90
21419;DHT22;10870;51.384;10.316;2022-07-23T04:46:04;16.20;99.90
21419;DHT22;10870;51.384;10.316;2022-07-23T04:48:05;16.20;99.90
21419;DHT22;10870;51.384;10.316;2022-07-23T04:50:08;16.20;99.90
21419;DHT22;10870;51.384;10.316;2022-07-23T04:52:09;16.20;99.90
21419;DHT22;10870;51.384;10.316;2022-07-23T04:54:10;16.20;99.90
21419;DHT22;10870;51.384;10.316;2022-07-23T04:56:13;16.30;99.90
21419;DHT22;10870;51.384;10.316;2022-07-23T04:58:15;16.30;99.90
21419;DHT22;10870;51.384;10.316;2022-07-23T05:00:16;16.30;99.90
21419;DHT22;10870;51.384;10.316;2022-07-23T05:02:17;16.40;99.90
21419;DHT22;10870;51.384;10.316;2022-07-23T05:04:18;16.40;99.90
21419;DHT22;10870;51.384;10.316;2022-07-23T05:06:18;16.40;99.90
21419;DHT22;10870;51.384;10.316;2022-07-23T05:08:28;16.40;99.90
21419;DHT22;10870;51.384;10.316;2022-07-23T05:10:31;16.30;99.90
21419;DHT22;10870;51.384;10.316;2022-07-23T05:12:34;16.30;99.90
21419;DHT22;10870;51.384;10.316;2022-07-23T05:14:35;16.20;99.90
21419;DHT22;10870;51.384;10.316;2022-07-23T05:16:39;16.10;99.90
21419;DHT22;10870;51.384;10.316;2022-07-23T05:18:42;16.20;99.90
21419;DHT22;10870;51.384;10.316;2022-07-23T05:20:43;16.10;99.90
21419;DHT22;10870;51.384;10.316;2022-07-23T05:22:47;16.10;99.90
21419;DHT22;10870;51.384;10.316;2022-07-23T05:24:51;16.10;99.90
21419;DHT22;10870;51.384;10.316;2022-07-23T05:26:54;16.20;99.90
21419;DHT22;10870;51.384;10.316;2022-07-23T05:28:57;16.20;99.90
21419;DHT22;10870;51.384;10.316;2022-07-23T05:30:58;16.20;99.90
21419;DHT22;10870;51.384;10.316;2022-07-23T05:32:59;16.30;99.90
21419;DHT22;10870;51.384;10.316;2022-07-23T05:35:00;16.30;99.90
21419;DHT22;10870;51.384;10.316;2022-07-23T05:37:04;16.30;99.90
21419;DHT22;10870;51.384;10.316;2022-07-23T05:39:08;16.30;99.90
21419;DHT22;10870;51.384;10.316;2022-07-23T05:41:11;16.30;99.90
21419;DHT22;10870;51.384;10.316;2022-07-23T05:43:14;16.40;99.90
21419;DHT22;10870;51.384;10.316;2022-07-23T05:45:17;16.40;99.90
21419;DHT22;10870;51.384;10.316;2022-07-23T05:49:22;16.30;99.90
21419;DHT22;10870;51.384;10.316;2022-07-23T05:51:23;16.40;99.90
21419;DHT22;10870;51.384;10.316;2022-07-23T05:53:26;16.50;99.90
21419;DHT22;10870;51.384;10.316;2022-07-23T05:55:30;16.50;99.90
21419;DHT22;10870;51.384;10.316;2022-07-23T05:57:32;16.60;99.90
21419;DHT22;10870;51.384;10.316;2022-07-23T05:59:33;16.60;99.90
21419;DHT22;10870;51.384;10.316;2022-07-23T06:01:36;16.60;99.90
21419;DHT22;10870;51.384;10.316;2022-07-23T06:03:37;16.70;99.90
21419;DHT22;10870;51.384;10.316;2022-07-23T06:05:38;16.60;99.90
21419;DHT22;10870;51.384;10.316;2022-07-23T06:07:39;16.60;99.90
21419;DHT22;10870;51.384;10.316;2022-07-23T06:09:40;16.60;99.90
21419;DHT22;10870;51.384;10.316;2022-07-23T06:11:44;16.70;99.90
21419;DHT22;10870;51.384;10.316;2022-07-23T06:13:46;16.70;99.90
21419;DHT22;10870;51.384;10.316;2022-07-23T06:15:47;16.60;99.90
21419;DHT22;10870;51.384;10.316;2022-07-23T06:17:47;16.60;99.90
21419;DHT22;10870;51.384;10.316;2022-07-23T06:19:51;16.80;99.90
21419;DHT22;10870;51.384;10.316;2022-07-23T06:25:56;16.80;99.90
21419;DHT22;10870;51.384;10.316;2022-07-23T06:27:57;16.80;99.90
21419;DHT22;10870;51.384;10.316;2022-07-23T06:29:58;16.80;99.90
21419;DHT22;10870;51.384;10.316;2022-07-23T06:31:59;16.80;99.90
21419;DHT22;10870;51.384;10.316;2022-07-23T06:34:03;16.90;99.90
21419;DHT22;10870;51.384;10.316;2022-07-23T06:36:04;16.80;99.90
21419;DHT22;10870;51.384;10.316;2022-07-23T06:38:05;16.80;99.90
21419;DHT22;10870;51.384;10.316;2022-07-23T06:40:09;16.80;99.90
21419;DHT22;10870;51.384;10.316;2022-07-23T06:42:10;16.80;99.90
21419;DHT22;10870;51.384;10.316;2022-07-23T06:44:14;16.90;99.90
21419;DHT22;10870;51.384;10.316;2022-07-23T06:46:20;16.90;99.90
21419;DHT22;10870;51.384;10.316;2022-07-23T06:48:22;16.90;99.90
21419;DHT22;10870;51.384;10.316;2022-07-23T06:50:23;16.90;99.90
21419;DHT22;10870;51.384;10.316;2022-07-23T06:52:28;16.90;99.90
21419;DHT22;10870;51.384;10.316;2022-07-23T06:54:29;17.00;99.90
21419;DHT22;10870;51.384;10.316;2022-07-23T06:56:34;17.00;99.90
21419;DHT22;10870;51.384;10.316;2022-07-23T06:58:36;17.60;99.90
21419;DHT22;10870;51.384;10.316;2022-07-23T07:00:43;17.00;99.90
21419;DHT22;10870;51.384;10.316;2022-07-23T07:02:44;17.10;99.90
21419;DHT22;10870;51.384;10.316;2022-07-23T07:04:45;17.20;99.90
21419;DHT22;10870;51.384;10.316;2022-07-23T07:06:49;17.20;99.90
21419;DHT22;10870;51.384;10.316;2022-07-23T07:10:51;17.30;99.90
21419;DHT22;10870;51.384;10.316;2022-07-23T07:12:52;17.30;99.90
21419;DHT22;10870;51.384;10.316;2022-07-23T07:14:56;17.30;99.90
21419;DHT22;10870;51.384;10.316;2022-07-23T07:17:00;17.40;99.90
21419;DHT22;10870;51.384;10.316;2022-07-23T07:19:01;17.50;99.90
21419;DHT22;10870;51.384;10.316;2022-07-23T07:21:05;17.40;99.90
21419;DHT22;10870;51.384;10.316;2022-07-23T07:23:05;17.40;99.90
21419;DHT22;10870;51.384;10.316;2022-07-23T07:25:09;17.40;99.90
21419;DHT22;10870;51.384;10.316;2022-07-23T07:27:17;17.40;99.90
21419;DHT22;10870;51.384;10.316;2022-07-23T07:29:18;17.50;99.90
21419;DHT22;10870;51.384;10.316;2022-07-23T07:31:20;17.60;99.90
21419;DHT22;10870;51.384;10.316;2022-07-23T07:33:23;17.70;99.90
21419;DHT22;10870;51.384;10.316;2022-07-23T07:35:25;17.70;99.90
21419;DHT22;10870;51.384;10.316;2022-07-23T07:37:31;17.60;99.90
21419;DHT22;10870;51.384;10.316;2022-07-23T07:39:32;17.80;99.90
21419;DHT22;10870;51.384;10.316;2022-07-23T07:41:36;17.80;99.90
21419;DHT22;10870;51.384;10.316;2022-07-23T09:23:49;19.30;99.90
21419;DHT22;10870;51.384;10.316;2022-07-23T09:25:50;19.50;99.90
21419;DHT22;10870;51.384;10.316;2022-07-23T09:27:53;19.70;99.90
21419;DHT22;10870;51.384;10.316;2022-07-23T09:29:57;19.70;99.90
21419;DHT22;10870;51.384;10.316;2022-07-23T09:32:01;19.70;99.90
21419;DHT22;10870;51.384;10.316;2022-07-23T09:34:08;19.70;99.90
21419;DHT22;10870;51.384;10.316;2022-07-23T09:36:12;19.80;99.90
21419;DHT22;10870;51.384;10.316;2022-07-23T11:15:22;21.70;99.90
21419;DHT22;10870;51.384;10.316;2022-07-23T11:17:26;21.70;99.90
21419;DHT22;10870;51.384;10.316;2022-07-23T11:19:27;21.90;99.90
21419;DHT22;10870;51.384;10.316;2022-07-23T11:24:25;22.00;99.90
21419;DHT22;10870;51.384;10.316;2022-07-23T11:26:06;22.10;99.90
21419;DHT22;10870;51.384;10.316;2022-07-23T11:28:10;22.10;99.90
21419;DHT22;10870;51.384;10.316;2022-07-23T11:32:32;22.30;52.50
21419;DHT22;10870;51.384;10.316;2022-07-23T12:38:05;23.40;99.90
21419;DHT22;10870;51.384;10.316;2022-07-23T12:40:24;23.70;1.00
21419;DHT22;10870;51.384;10.316;2022-07-23T12:42:28;23.80;1.00
21419;DHT22;10870;51.384;10.316;2022-07-23T12:47:04;23.90;99.90
21419;DHT22;10870;51.384;10.316;2022-07-23T12:49:05;23.80;99.90
21419;DHT22;10870;51.384;10.316;2022-07-23T12:51:16;23.80;1.00
21419;DHT22;10870;51.384;10.316;2022-07-23T12:55:27;23.90;1.00
21419;DHT22;10870;51.384;10.316;2022-07-23T12:57:48;23.70;99.90
21419;DHT22;10870;51.384;10.316;2022-07-23T12:59:52;23.80;1.00
21419;DHT22;10870;51.384;10.316;2022-07-23T13:01:56;23.80;1.00
21419;DHT22;10870;51.384;10.316;2022-07-23T13:04:09;23.80;99.90
21419;DHT22;10870;51.384;10.316;2022-07-23T13:06:13;23.50;99.90
21419;DHT22;10870;51.384;10.316;2022-07-23T13:08:16;23.70;99.90
21419;DHT22;10870;51.384;10.316;2022-07-23T13:10:20;23.90;99.90
21419;DHT22;10870;51.384;10.316;2022-07-23T13:12:27;24.00;1.00
21419;DHT22;10870;51.384;10.316;2022-07-23T13:14:28;24.30;99.90
21419;DHT22;10870;51.384;10.316;2022-07-23T13:16:36;24.40;1.00
21419;DHT22;10870;51.384;10.316;2022-07-23T13:18:40;24.40;99.90
21419;DHT22;10870;51.384;10.316;2022-07-23T13:20:41;24.10;87.00
21419;DHT22;10870;51.384;10.316;2022-07-23T13:22:46;24.00;1.00
21419;DHT22;10870;51.384;10.316;2022-07-23T13:24:47;23.90;99.90
21419;DHT22;10870;51.384;10.316;2022-07-23T13:26:54;23.90;1.00
21419;DHT22;10870;51.384;10.316;2022-07-23T13:28:57;23.90;1.00
21419;DHT22;10870;51.384;10.316;2022-07-23T13:30:58;23.50;99.90
21419;DHT22;10870;51.384;10.316;2022-07-23T13:33:00;23.50;99.90
21419;DHT22;10870;51.384;10.316;2022-07-23T13:35:03;23.70;99.90
21419;DHT22;10870;51.384;10.316;2022-07-23T13:37:05;23.70;1.00
21419;DHT22;10870;51.384;10.316;2022-07-23T13:39:09;23.80;40.60
21419;DHT22;10870;51.384;10.316;2022-07-23T13:41:10;24.40;1.00
21419;DHT22;10870;51.384;10.316;2022-07-23T13:43:12;24.40;99.90
21419;DHT22;10870;51.384;10.316;2022-07-23T13:45:17;24.40;1.00
21419;DHT22;10870;51.384;10.316;2022-07-23T13:47:21;24.60;1.00
21419;DHT22;10870;51.384;10.316;2022-07-23T13:49:23;24.40;99.90
